createdAt,value
2023-09-02T00:01:22.915Z,5.05
2023-09-02T00:03:53.408Z,5.00
2023-09-02T00:06:20.591Z,4.93
2023-09-02T00:08:47.434Z,4.97
2023-09-02T00:11:14.544Z,4.53
2023-09-02T00:13:41.876Z,4.20
2023-09-02T00:16:09.310Z,4.13
2023-09-02T00:18:36.219Z,4.13
2023-09-02T00:21:03.566Z,3.33
2023-09-02T00:23:32.924Z,4.00
2023-09-02T00:26:00.191Z,3.83
2023-09-02T00:28:27.300Z,3.90
2023-09-02T00:30:54.872Z,4.65
2023-09-02T00:33:22.970Z,3.63
2023-09-02T00:35:50.735Z,3.65
2023-09-02T00:38:18.162Z,3.72
2023-09-02T00:40:52.274Z,3.75
2023-09-02T00:43:19.742Z,3.22
2023-09-02T00:45:47.047Z,4.18
2023-09-02T00:48:14.808Z,4.22
2023-09-02T00:50:41.657Z,3.30
2023-09-02T00:53:09.184Z,3.08
2023-09-02T00:55:36.113Z,3.72
2023-09-02T00:58:03.234Z,3.70
2023-09-02T01:00:30.737Z,4.00
2023-09-02T01:03:00.124Z,4.03
2023-09-02T01:05:27.680Z,4.05
2023-09-02T01:07:55.480Z,3.63
2023-09-02T01:10:24.101Z,3.80
2023-09-02T01:12:51.968Z,3.55
2023-09-02T01:15:19.217Z,3.88
2023-09-02T01:17:46.178Z,3.60
2023-09-02T01:20:15.120Z,3.92
2023-09-02T01:23:01.043Z,4.15
2023-09-02T01:25:55.376Z,4.75
2023-09-02T01:28:29.658Z,4.60
2023-09-02T01:30:56.820Z,4.35
2023-09-02T01:33:28.267Z,4.60
2023-09-02T01:38:28.572Z,4.60
2023-09-02T01:40:57.975Z,4.97
2023-09-02T01:43:26.011Z,4.90
2023-09-02T01:45:54.111Z,5.57
2023-09-02T01:48:21.408Z,5.15
2023-09-02T01:50:48.664Z,5.97
2023-09-02T01:53:16.211Z,5.22
2023-09-02T01:55:43.864Z,5.10
2023-09-02T01:58:12.342Z,5.50
2023-09-02T02:00:42.052Z,6.15
2023-09-02T02:03:21.994Z,5.70
2023-09-02T02:05:54.181Z,5.63
2023-09-02T02:08:32.518Z,4.68
2023-09-02T02:11:00.881Z,4.72
2023-09-02T02:13:27.766Z,5.38
2023-09-02T02:15:55.638Z,4.75
2023-09-02T02:18:22.748Z,4.40
2023-09-02T02:21:09.105Z,4.57
2023-09-02T02:23:36.140Z,4.93
2023-09-02T02:26:04.592Z,4.90
2023-09-02T02:28:32.001Z,4.80
2023-09-02T02:31:02.674Z,4.13
2023-09-02T02:33:29.749Z,4.18
2023-09-02T02:35:56.724Z,4.60
2023-09-02T02:38:23.914Z,4.22
2023-09-02T02:40:51.343Z,3.92
2023-09-02T02:43:18.792Z,3.47
2023-09-02T02:45:46.120Z,3.83
2023-09-02T02:48:17.031Z,3.97
2023-09-02T02:50:44.609Z,4.50
2023-09-02T02:53:12.932Z,4.15
2023-09-02T02:55:40.056Z,4.30
2023-09-02T02:58:07.411Z,4.07
2023-09-02T03:00:34.849Z,3.92
2023-09-02T03:03:04.895Z,4.15
2023-09-02T03:05:38.545Z,4.72
2023-09-02T03:08:08.297Z,4.72
2023-09-02T03:10:37.065Z,4.88
2023-09-02T03:13:05.876Z,4.57
2023-09-02T03:15:33.598Z,4.55
2023-09-02T03:18:01.789Z,4.82
2023-09-02T03:20:32.132Z,4.40
2023-09-02T03:22:59.339Z,5.22
2023-09-02T03:25:28.618Z,4.97
2023-09-02T03:27:56.254Z,4.88
2023-09-02T03:30:23.719Z,5.05
2023-09-02T03:32:51.424Z,4.93
2023-09-02T03:35:19.026Z,5.40
2023-09-02T03:37:46.335Z,4.72
2023-09-02T03:40:13.599Z,6.00
2023-09-02T03:42:40.988Z,5.25
2023-09-02T03:45:10.967Z,5.07
2023-09-02T03:47:38.717Z,5.50
2023-09-02T03:50:08.277Z,5.60
2023-09-02T03:52:35.650Z,6.32
2023-09-02T03:55:03.139Z,5.18
2023-09-02T03:57:32.822Z,4.90
2023-09-02T04:00:00.882Z,4.95
2023-09-02T04:02:30.246Z,5.47
2023-09-02T04:04:57.627Z,4.95
2023-09-02T04:07:25.272Z,5.28
2023-09-02T04:09:52.545Z,5.20
2023-09-02T04:12:19.676Z,4.82
2023-09-02T04:14:46.738Z,6.57
2023-09-02T04:17:13.987Z,5.95
2023-09-02T04:19:42.340Z,6.70
2023-09-02T04:22:09.908Z,5.38
2023-09-02T04:24:37.238Z,5.63
2023-09-02T04:27:04.633Z,5.63
2023-09-02T04:29:31.661Z,5.30
2023-09-02T04:31:59.411Z,5.65
2023-09-02T04:34:27.950Z,5.00
2023-09-02T04:36:55.105Z,5.20
2023-09-02T04:39:22.304Z,5.68
2023-09-02T04:41:49.446Z,5.65
2023-09-02T04:44:18.965Z,5.40
2023-09-02T04:46:46.215Z,5.85
2023-09-02T04:49:14.021Z,5.20
2023-09-02T04:51:41.204Z,5.70
2023-09-02T04:54:08.549Z,5.55
2023-09-02T04:56:35.731Z,6.80
2023-09-02T04:59:03.227Z,6.93
2023-09-02T05:01:30.921Z,6.80
2023-09-02T05:03:59.813Z,9.70
2023-09-02T05:06:26.926Z,8.98
2023-09-02T05:08:55.716Z,8.38
2023-09-02T05:11:26.061Z,9.15
2023-09-02T05:13:56.877Z,7.40
2023-09-02T05:16:24.280Z,10.80
2023-09-02T05:18:52.518Z,8.98
2023-09-02T05:21:19.437Z,11.60
2023-09-02T05:23:47.561Z,12.82
2023-09-02T05:26:15.020Z,12.80
2023-09-02T05:28:42.355Z,13.93
2023-09-02T05:31:09.636Z,13.90
2023-09-02T05:33:36.933Z,12.73
2023-09-02T05:36:04.043Z,12.88
2023-09-02T05:38:31.188Z,13.55
2023-09-02T05:40:58.185Z,13.23
2023-09-02T05:43:30.293Z,10.85
2023-09-02T05:46:02.907Z,10.35
2023-09-02T05:48:31.531Z,9.25
2023-09-02T05:50:58.865Z,8.65
2023-09-02T05:53:25.998Z,8.50
2023-09-02T05:55:55.740Z,7.88
2023-09-02T05:58:28.304Z,8.68
2023-09-02T06:00:55.473Z,7.05
2023-09-02T06:03:23.069Z,7.22
2023-09-02T06:05:50.639Z,6.10
2023-09-02T06:08:19.035Z,5.80
2023-09-02T06:10:57.249Z,5.32
2023-09-02T06:13:24.245Z,5.00
2023-09-02T06:15:51.455Z,4.20
2023-09-02T06:18:18.532Z,10.18
2023-09-02T06:20:45.571Z,14.73
2023-09-02T06:23:12.764Z,7.60
2023-09-02T06:25:40.060Z,8.50
2023-09-02T06:28:07.035Z,6.63
2023-09-02T06:30:34.179Z,5.63
2023-09-02T06:33:01.128Z,7.28
2023-09-02T06:35:31.519Z,6.13
2023-09-02T06:37:58.615Z,6.47
2023-09-02T06:40:25.759Z,6.82
2023-09-02T06:42:53.007Z,6.55
2023-09-02T06:45:20.266Z,6.57
2023-09-02T06:47:47.701Z,6.03
2023-09-02T06:50:14.887Z,5.55
2023-09-02T06:52:42.173Z,3.50
2023-09-02T06:55:09.408Z,3.47
2023-09-02T06:57:36.783Z,3.05
2023-09-02T07:00:04.244Z,3.22
2023-09-02T07:02:31.321Z,3.03
2023-09-02T07:05:00.275Z,4.03
2023-09-02T07:07:27.502Z,3.30
2023-09-02T07:09:54.540Z,3.67
2023-09-02T07:12:21.775Z,4.40
2023-09-02T07:14:49.090Z,4.55
2023-09-02T07:17:16.154Z,5.68
2023-09-02T07:19:43.474Z,5.20
2023-09-02T07:22:10.973Z,5.22
2023-09-02T07:24:37.983Z,5.45
2023-09-02T07:27:05.572Z,4.53
2023-09-02T07:29:32.814Z,4.43
2023-09-02T07:32:00.134Z,4.15
2023-09-02T07:34:27.251Z,3.83
2023-09-02T07:36:54.635Z,3.72
2023-09-02T07:39:21.581Z,4.78
2023-09-02T07:41:50.153Z,3.90
2023-09-02T07:44:17.231Z,3.38
2023-09-02T07:46:44.710Z,3.60
2023-09-02T07:49:11.695Z,2.60
2023-09-02T07:51:39.101Z,2.60
2023-09-02T07:54:06.148Z,3.10
2023-09-02T07:56:32.987Z,3.30
2023-09-02T07:59:00.157Z,3.55
2023-09-02T08:01:28.451Z,3.83
2023-09-02T08:03:55.947Z,3.63
2023-09-02T08:06:23.131Z,3.50
2023-09-02T08:08:50.447Z,3.50
2023-09-02T08:11:19.285Z,3.10
2023-09-02T08:13:46.669Z,3.03
2023-09-02T08:16:13.767Z,3.22
2023-09-02T08:18:40.962Z,3.08
2023-09-02T08:21:10.055Z,2.47
2023-09-02T08:23:39.828Z,2.50
2023-09-02T08:26:11.712Z,2.40
2023-09-02T08:28:38.781Z,2.60
2023-09-02T08:31:06.200Z,2.30
2023-09-02T08:33:33.193Z,2.72
2023-09-02T08:36:00.538Z,2.35
2023-09-02T08:38:27.813Z,2.40
2023-09-02T08:40:55.727Z,2.47
2023-09-02T08:43:23.373Z,2.50
2023-09-02T08:45:54.048Z,2.22
2023-09-02T08:48:26.963Z,2.28
2023-09-02T08:50:56.051Z,2.50
2023-09-02T08:53:25.176Z,1.95
2023-09-02T08:55:54.145Z,2.33
2023-09-02T08:58:21.669Z,2.15
2023-09-02T09:00:50.072Z,2.42
2023-09-02T09:03:20.197Z,2.50
2023-09-02T09:05:49.982Z,2.23
2023-09-02T09:08:18.164Z,2.40
2023-09-02T09:10:46.201Z,2.33
2023-09-02T09:13:15.169Z,2.10
2023-09-02T09:15:43.468Z,2.53
2023-09-02T09:18:13.158Z,2.15
2023-09-02T09:20:41.084Z,2.30
2023-09-02T09:23:09.522Z,2.17
2023-09-02T09:25:37.234Z,2.70
2023-09-02T09:28:12.610Z,2.78
2023-09-02T09:30:40.047Z,2.42
2023-09-02T09:33:08.407Z,2.75
2023-09-02T09:35:36.730Z,2.20
2023-09-02T09:38:04.612Z,2.20
2023-09-02T09:40:40.015Z,1.80
2023-09-02T09:43:18.635Z,1.92
2023-09-02T09:45:53.319Z,1.50
2023-09-02T09:48:20.880Z,1.80
2023-09-02T09:50:47.928Z,2.05
2023-09-02T09:53:15.268Z,1.65
2023-09-02T09:55:42.484Z,2.00
2023-09-02T09:58:10.017Z,2.08
2023-09-02T10:00:37.532Z,1.50
2023-09-02T10:03:05.759Z,1.75
2023-09-02T10:05:35.243Z,1.77
2023-09-02T10:08:08.780Z,1.88
2023-09-02T10:10:40.191Z,1.80
2023-09-02T10:13:07.360Z,2.13
2023-09-02T10:15:34.660Z,1.73
2023-09-02T10:18:07.331Z,1.60
2023-09-02T10:20:36.756Z,2.05
2023-09-02T10:23:11.637Z,1.67
2023-09-02T10:25:59.017Z,2.13
2023-09-02T10:28:38.344Z,1.65
2023-09-02T10:31:23.243Z,1.98
2023-09-02T10:34:08.769Z,1.90
2023-09-02T10:36:40.325Z,1.60
2023-09-02T10:39:14.478Z,1.65
2023-09-02T10:41:42.797Z,1.70
2023-09-02T10:44:11.960Z,1.67
2023-09-02T10:46:40.440Z,1.73
2023-09-02T10:49:08.194Z,1.80
2023-09-02T10:51:35.431Z,1.92
2023-09-02T10:54:03.578Z,1.80
2023-09-02T10:56:36.053Z,1.42
2023-09-02T10:59:05.468Z,1.73
2023-09-02T11:01:49.519Z,1.77
2023-09-02T11:05:00.853Z,1.52
2023-09-02T11:07:28.523Z,1.70
2023-09-02T11:09:57.499Z,1.50
2023-09-02T11:12:25.693Z,1.63
2023-09-02T11:15:08.145Z,1.65
2023-09-02T11:17:45.270Z,1.40
2023-09-02T11:20:17.035Z,1.30
2023-09-02T11:22:57.441Z,1.70
2023-09-02T11:25:34.462Z,1.50
2023-09-02T11:28:14.900Z,1.30
2023-09-02T11:31:04.032Z,1.65
2023-09-02T11:33:31.694Z,1.80
2023-09-02T11:36:07.333Z,1.70
2023-09-02T11:38:35.726Z,1.38
2023-09-02T11:41:03.553Z,1.60
2023-09-02T11:43:35.930Z,1.88
2023-09-02T11:46:04.706Z,1.80
2023-09-02T11:48:32.757Z,1.45
2023-09-02T11:51:00.246Z,1.50
2023-09-02T11:53:32.050Z,1.60
2023-09-02T11:55:59.219Z,1.60
2023-09-02T11:58:26.699Z,1.90
2023-09-02T12:00:53.758Z,2.75
2023-09-02T12:03:25.865Z,1.77
2023-09-02T12:05:55.179Z,1.98
2023-09-02T12:08:23.287Z,1.70
2023-09-02T12:10:52.772Z,1.88
2023-09-02T12:15:58.174Z,1.55
2023-09-02T12:18:26.495Z,1.70
2023-09-02T12:20:53.969Z,2.30
2023-09-02T12:23:21.654Z,2.13
2023-09-02T12:26:10.348Z,1.40
2023-09-02T12:28:37.904Z,1.70
2023-09-02T12:31:06.091Z,1.38
2023-09-02T12:33:35.541Z,2.00
2023-09-02T12:36:05.099Z,2.13
2023-09-02T12:38:51.887Z,1.80
2023-09-02T12:41:19.031Z,1.70
2023-09-02T12:43:46.247Z,1.80
2023-09-02T12:46:18.966Z,2.00
2023-09-02T12:48:47.786Z,1.80
2023-09-02T12:51:29.437Z,1.92
2023-09-02T12:53:58.764Z,1.75
2023-09-02T12:56:25.919Z,2.10
2023-09-02T12:58:53.074Z,2.10
2023-09-02T13:01:20.528Z,1.92
2023-09-02T13:03:47.713Z,2.70
2023-09-02T13:06:14.977Z,1.60
2023-09-02T13:08:45.772Z,2.10
2023-09-02T13:11:13.044Z,1.98
2023-09-02T13:13:40.240Z,2.00
2023-09-02T13:16:07.517Z,2.33
2023-09-02T13:18:34.481Z,2.30
2023-09-02T13:21:01.784Z,1.63
2023-09-02T13:23:32.728Z,2.17
2023-09-02T13:26:01.252Z,2.00
2023-09-02T13:28:36.170Z,1.98
2023-09-02T13:31:04.242Z,1.90
2023-09-02T13:33:31.774Z,1.80
2023-09-02T13:36:00.619Z,2.08
2023-09-02T13:38:29.619Z,1.80
2023-09-02T13:40:56.812Z,1.83
2023-09-02T13:43:25.831Z,2.10
2023-09-02T13:45:53.600Z,2.25
2023-09-02T13:48:22.177Z,2.00
2023-09-02T13:50:51.847Z,2.00
2023-09-02T13:53:20.674Z,2.10
2023-09-02T13:55:49.678Z,2.08
2023-09-02T13:58:22.867Z,2.15
2023-09-02T14:00:52.984Z,1.98
2023-09-02T14:03:27.778Z,2.05
2023-09-02T14:05:56.571Z,2.08
2023-09-02T14:08:38.808Z,2.40
2023-09-02T14:11:08.991Z,2.03
2023-09-02T14:13:41.178Z,2.38
2023-09-02T14:16:09.965Z,2.40
2023-09-02T14:18:37.386Z,2.15
2023-09-02T14:21:04.606Z,2.53
2023-09-02T14:23:38.339Z,2.10
2023-09-02T14:26:06.565Z,1.92
2023-09-02T14:28:35.234Z,2.38
2023-09-02T14:31:02.471Z,1.98
2023-09-02T14:33:29.895Z,2.33
2023-09-02T14:35:57.258Z,7.80
2023-09-02T14:38:24.581Z,7.15
2023-09-02T14:40:51.547Z,3.10
2023-09-02T14:43:18.798Z,3.55
2023-09-02T14:45:46.112Z,3.47
2023-09-02T14:48:14.004Z,2.35
2023-09-02T14:50:42.620Z,2.10
2023-09-02T14:53:09.929Z,2.45
2023-09-02T14:55:37.382Z,2.30
2023-09-02T14:58:04.583Z,2.25
2023-09-02T15:00:32.150Z,2.45
2023-09-02T15:03:02.954Z,2.22
2023-09-02T15:05:34.097Z,2.05
2023-09-02T15:10:31.324Z,1.98
2023-09-02T15:13:03.344Z,2.58
2023-09-02T15:15:39.963Z,2.38
2023-09-02T15:18:13.820Z,2.35
2023-09-02T15:20:41.894Z,2.25
2023-09-02T15:23:09.526Z,1.95
2023-09-02T15:25:36.733Z,1.70
2023-09-02T15:28:07.394Z,2.53
2023-09-02T15:30:35.049Z,2.70
2023-09-02T15:33:04.763Z,2.25
2023-09-02T15:35:33.934Z,2.33
2023-09-02T15:38:01.446Z,2.15
2023-09-02T15:40:31.500Z,2.28
2023-09-02T15:43:03.889Z,2.30
2023-09-02T15:45:33.726Z,2.40
2023-09-02T15:48:00.970Z,2.10
2023-09-02T15:50:30.032Z,2.22
2023-09-02T15:52:57.178Z,2.30
2023-09-02T15:55:24.934Z,2.35
2023-09-02T15:57:53.411Z,2.13
2023-09-02T16:00:24.359Z,2.05
2023-09-02T16:02:52.172Z,1.83
2023-09-02T16:05:19.735Z,1.98
2023-09-02T16:07:51.272Z,2.20
2023-09-02T16:10:19.071Z,2.38
2023-09-02T16:12:46.463Z,2.55
2023-09-02T16:15:15.570Z,1.95
2023-09-02T16:17:43.501Z,2.35
2023-09-02T16:20:11.905Z,1.98
2023-09-02T16:22:43.042Z,2.28
2023-09-02T16:25:11.425Z,2.17
2023-09-02T16:27:40.117Z,3.40
2023-09-02T16:30:10.413Z,2.17
2023-09-02T16:32:38.396Z,1.92
2023-09-02T16:35:06.589Z,2.53
2023-09-02T16:37:44.879Z,2.40
2023-09-02T16:40:12.824Z,2.63
2023-09-02T16:42:42.360Z,2.40
2023-09-02T16:45:12.812Z,2.35
2023-09-02T16:47:53.513Z,2.83
2023-09-02T16:50:21.385Z,2.50
2023-09-02T16:52:53.842Z,2.67
2023-09-02T16:55:26.370Z,2.45
2023-09-02T16:57:54.387Z,2.03
2023-09-02T17:00:25.804Z,2.42
2023-09-02T17:05:25.487Z,2.55
2023-09-02T17:07:54.591Z,2.75
2023-09-02T17:10:24.526Z,3.08
2023-09-02T17:12:52.921Z,3.50
2023-09-02T17:15:22.528Z,3.50
2023-09-02T17:17:51.482Z,3.60
2023-09-02T17:20:24.648Z,3.60
2023-09-02T17:22:52.054Z,5.07
2023-09-02T17:25:19.271Z,4.75
2023-09-02T17:27:49.712Z,3.90
2023-09-02T17:30:20.446Z,3.63
2023-09-02T17:32:50.719Z,3.50
2023-09-02T17:35:18.062Z,3.30
2023-09-02T17:37:46.171Z,3.45
2023-09-02T17:40:14.626Z,2.65
2023-09-02T17:42:45.212Z,4.05
2023-09-02T17:45:13.853Z,3.50
2023-09-02T17:47:41.446Z,3.70
2023-09-02T17:50:10.920Z,4.35
2023-09-02T17:52:38.785Z,3.85
2023-09-02T17:55:06.786Z,4.28
2023-09-02T17:57:36.070Z,4.63
2023-09-02T18:00:07.336Z,4.32
2023-09-02T18:02:36.771Z,4.68
2023-09-02T18:05:05.243Z,4.35
2023-09-02T18:07:33.103Z,4.72
2023-09-02T18:10:01.042Z,4.97
2023-09-02T18:12:28.190Z,5.30
2023-09-02T18:14:55.232Z,4.65
2023-09-02T18:17:22.224Z,6.00
2023-09-02T18:19:49.598Z,6.85
2023-09-02T18:22:16.664Z,7.18
2023-09-02T18:24:52.394Z,6.70
2023-09-02T18:27:19.441Z,7.45
2023-09-02T18:29:46.549Z,6.78
2023-09-02T18:32:13.841Z,6.85
2023-09-02T18:34:41.073Z,7.20
2023-09-02T18:37:08.141Z,6.78
2023-09-02T18:39:35.367Z,5.78
2023-09-02T18:42:02.381Z,6.65
2023-09-02T18:44:31.001Z,6.05
2023-09-02T18:46:57.972Z,5.65
2023-09-02T18:49:25.112Z,5.90
2023-09-02T18:51:52.236Z,5.47
2023-09-02T18:54:19.112Z,7.90
2023-09-02T18:56:46.197Z,6.97
2023-09-02T18:59:13.267Z,6.72
2023-09-02T19:01:40.096Z,7.45
2023-09-02T19:04:09.236Z,7.78
2023-09-02T19:06:36.982Z,7.22
2023-09-02T19:09:04.613Z,7.30
2023-09-02T19:11:32.003Z,6.25
2023-09-02T19:13:59.234Z,5.25
2023-09-02T19:16:26.942Z,4.82
2023-09-02T19:18:55.132Z,4.68
2023-09-02T19:21:23.462Z,3.80
2023-09-02T19:23:51.068Z,3.55
2023-09-02T19:26:18.329Z,4.50
2023-09-02T19:28:45.732Z,4.03
2023-09-02T19:31:12.760Z,4.57
2023-09-02T19:33:40.050Z,3.90
2023-09-02T19:36:17.496Z,4.03
2023-09-02T19:38:44.703Z,4.57
2023-09-02T19:41:12.089Z,4.72
2023-09-02T19:43:40.174Z,4.05
2023-09-02T19:46:08.321Z,4.75
2023-09-02T19:48:35.659Z,4.55
2023-09-02T19:51:02.846Z,4.93
2023-09-02T19:53:30.913Z,4.45
2023-09-02T19:56:00.469Z,4.68
2023-09-02T19:58:27.819Z,4.90
2023-09-02T20:00:54.976Z,4.65
2023-09-02T20:03:23.503Z,4.43
2023-09-02T20:05:50.677Z,3.95
2023-09-02T20:08:17.932Z,4.88
2023-09-02T20:10:45.657Z,5.07
2023-09-02T20:13:12.879Z,4.55
2023-09-02T20:15:40.207Z,5.30
2023-09-02T20:18:07.136Z,4.63
2023-09-02T20:20:34.220Z,4.15
2023-09-02T20:23:01.458Z,4.70
2023-09-02T20:25:33.063Z,4.40
2023-09-02T20:28:00.563Z,3.70
2023-09-02T20:30:27.598Z,4.00
2023-09-02T20:32:54.843Z,3.70
2023-09-02T20:35:21.921Z,4.20
2023-09-02T20:37:48.996Z,4.53
2023-09-02T20:40:16.241Z,4.57
2023-09-02T20:42:43.176Z,4.45
2023-09-02T20:45:10.640Z,4.18
2023-09-02T20:47:37.865Z,4.15
2023-09-02T20:50:05.114Z,3.90
2023-09-02T20:52:32.359Z,4.03
2023-09-02T20:55:00.175Z,4.60
2023-09-02T20:57:56.240Z,4.38
2023-09-02T21:00:30.500Z,4.03
2023-09-02T21:02:57.936Z,3.90
2023-09-02T21:05:55.705Z,4.50
2023-09-02T21:08:23.642Z,5.00
2023-09-02T21:10:53.305Z,4.60
2023-09-02T21:13:20.175Z,4.25
2023-09-02T21:15:47.391Z,4.55
2023-09-02T21:18:14.528Z,5.25
2023-09-02T21:20:43.347Z,4.43
2023-09-02T21:23:10.617Z,4.30
2023-09-02T21:25:37.641Z,4.28
2023-09-02T21:28:38.145Z,4.28
2023-09-02T21:31:09.226Z,4.03
2023-09-02T21:36:04.099Z,4.50
2023-09-02T21:38:32.789Z,4.55
2023-09-02T21:41:04.310Z,4.47
2023-09-02T21:43:37.269Z,4.70
2023-09-02T21:46:11.587Z,5.05
2023-09-02T21:48:40.242Z,4.63
2023-09-02T21:51:09.010Z,4.72
2023-09-02T21:53:40.352Z,4.43
2023-09-02T21:58:34.578Z,4.53
2023-09-02T22:01:02.814Z,4.57
2023-09-02T22:03:30.807Z,4.25
2023-09-02T22:06:07.058Z,4.55
2023-09-02T22:08:34.176Z,4.53
2023-09-02T22:11:01.598Z,4.25
2023-09-02T22:13:29.177Z,4.85
2023-09-02T22:15:57.787Z,4.60
2023-09-02T22:18:26.614Z,4.28
2023-09-02T22:20:55.566Z,4.68
2023-09-02T22:23:24.189Z,4.85
2023-09-02T22:25:51.601Z,4.25
2023-09-02T22:28:18.460Z,4.95
2023-09-02T22:30:45.471Z,4.70
2023-09-02T22:33:13.012Z,4.55
2023-09-02T22:35:40.012Z,5.00
2023-09-02T22:38:10.025Z,4.40
2023-09-02T22:40:37.928Z,4.77
2023-09-02T22:43:04.917Z,4.82
2023-09-02T22:45:37.113Z,4.63
2023-09-02T22:48:05.293Z,5.13
2023-09-02T22:50:33.693Z,4.75
2023-09-02T22:53:03.680Z,4.90
2023-09-02T22:55:33.434Z,5.00
2023-09-02T22:58:08.132Z,5.10
2023-09-02T23:00:36.551Z,4.78
2023-09-02T23:03:04.663Z,4.47
2023-09-02T23:05:32.285Z,4.85
2023-09-02T23:08:01.189Z,5.38
2023-09-02T23:10:29.865Z,4.57
2023-09-02T23:12:57.463Z,4.82
2023-09-02T23:15:24.503Z,5.22
2023-09-02T23:17:53.418Z,5.63
2023-09-02T23:20:21.762Z,5.13
2023-09-02T23:22:49.973Z,5.68
2023-09-02T23:25:16.866Z,4.97
2023-09-02T23:27:53.430Z,4.60
2023-09-02T23:30:21.254Z,5.15
2023-09-02T23:32:50.379Z,5.43
2023-09-02T23:35:17.598Z,5.28
2023-09-02T23:37:46.206Z,5.20
2023-09-02T23:40:16.360Z,6.60
2023-09-02T23:42:44.339Z,6.28
2023-09-02T23:45:12.409Z,5.55
2023-09-02T23:47:39.405Z,6.80
2023-09-02T23:50:07.304Z,6.05
2023-09-02T23:52:35.208Z,6.65
2023-09-02T23:55:03.152Z,6.18
2023-09-02T23:57:30.110Z,5.47
2023-09-02T23:59:57.344Z,5.68
